KENV/ENV METAR and TAF weather

Enter ICAO airport designator
Station Type Date Time Source
KENV METAR 2021/01/16 02:56 UTC NOAA

KENV 160256Z AUTO 24004KT 10SM CLR M01/M07 A3033 RMK AO2 SLP312 6//// T10061072 55002 FZRANO PNO $


Station Type Date Time Source
KENV Decoded METAR 2021/01/16 02:56 UTC NOAA

Wendover / Air Force Auxillary Field, UT, United States (KENV) 40-44N 114-02W 1292M
Jan 15, 2021 - 09:56 PM EST / 2021.01.16 0256 UTC
Wind: from the WSW (240 degrees) at 5 MPH (4 KT):0
Visibility: 10 mile(s):0
Sky conditions: clear
Temperature: 30.9 F (-0.6 C)
Windchill: 26 F (-3 C):1
Dew Point: 19.0 F (-7.2 C)
Relative Humidity: 60%
Pressure (altimeter): 30.33 in. Hg (1027 hPa)
Pressure tendency: 0.01 inches (0.2 hPa) lower than three hours ago
ob: KENV 160256Z AUTO 24004KT 10SM CLR M01/M07 A3033 RMK AO2 SLP312 6//// T10061072 55002 FZRANO PNO
cycle: 3

Station Type Date Time Source
KENV TAF 2021/01/15 18:36 UTC NOAA

TAF KENV 151734Z 1518/1618 10004KT P6SM SCT180
FM160200 33005KT P6SM BKN120

Example: see airport list